Terminal Aerodrome Forecast
Issued by NWS

Current Version | Previous Version | Text Only | Print | Product List | Glossary On
Versions: 1 2 3 4 5 6 7 8 9 10 11 12 13 14 15 16 17 18 19 20 21 22 23 24 25 26 27
931
FTUS43 KGRR 301725
TAFMKG
TAF
KMKG 301725Z 3018/3118 08016G23KT P6SM -RA BKN013 OVC035
     FM302100 09017KT 2SM SHRA OVC008
     FM302300 08016KT 3SM SHRA OVC015
     FM310100 08014KT 3SM -SHRA OVC008
     FM310400 07012KT 3SM -SHRA OVC008
     FM310900 06010KT P6SM OVC008
     FM311000 05010KT 5SM -SHRA OVC008
     FM311200 04010KT 6SM -SHRA OVC008=

USA.gov is the U.S. government's official web portal to all federal, state and local government web resources and services.